createdAt,value
2023-01-29T00:00:43.316Z,6.40
2023-01-29T00:01:43.312Z,6.20
2023-01-29T00:02:43.350Z,6.50
2023-01-29T00:03:43.278Z,6.20
2023-01-29T00:04:43.287Z,6.00
2023-01-29T00:05:43.307Z,6.20
2023-01-29T00:06:43.278Z,6.10
2023-01-29T00:07:43.282Z,6.40
2023-01-29T00:08:43.228Z,6.50
2023-01-29T00:09:43.257Z,6.60
2023-01-29T00:10:43.248Z,6.10
2023-01-29T00:11:43.177Z,6.70
2023-01-29T00:12:43.155Z,6.00
2023-01-29T00:13:43.229Z,6.50
2023-01-29T00:14:43.160Z,6.30
2023-01-29T00:15:43.193Z,6.70
2023-01-29T00:16:43.203Z,7.20
2023-01-29T00:17:43.208Z,6.50
2023-01-29T00:18:43.126Z,6.70
2023-01-29T00:19:43.195Z,7.00
2023-01-29T00:20:43.094Z,6.60
2023-01-29T00:21:43.120Z,7.00
2023-01-29T00:22:43.094Z,7.30
2023-01-29T00:23:43.057Z,7.20
2023-01-29T00:24:43.041Z,7.10
2023-01-29T00:25:43.036Z,7.20
2023-01-29T00:26:43.063Z,6.80
2023-01-29T00:27:43.044Z,6.60
2023-01-29T00:28:43.035Z,7.10
2023-01-29T00:29:43.109Z,7.10
2023-01-29T00:30:42.973Z,7.50
2023-01-29T00:31:43.046Z,7.10
2023-01-29T00:32:43.014Z,7.00
2023-01-29T00:33:42.972Z,7.10
2023-01-29T00:34:42.979Z,7.20
2023-01-29T00:35:42.938Z,7.00
2023-01-29T00:36:42.940Z,7.40
2023-01-29T00:37:42.944Z,7.50
2023-01-29T00:38:42.896Z,7.40
2023-01-29T00:39:48.230Z,7.50
2023-01-29T00:40:43.882Z,7.80
2023-01-29T00:41:42.843Z,7.40
2023-01-29T00:42:42.935Z,7.70
2023-01-29T00:43:42.860Z,7.30
2023-01-29T00:44:42.876Z,7.50
2023-01-29T00:45:42.822Z,7.50
2023-01-29T00:46:42.866Z,7.90
2023-01-29T00:47:42.774Z,7.70
2023-01-29T00:48:42.785Z,7.90
2023-01-29T00:49:42.780Z,8.10
2023-01-29T00:50:42.808Z,7.30
2023-01-29T00:51:42.749Z,8.00
2023-01-29T00:52:42.739Z,8.00
2023-01-29T00:53:42.738Z,7.50
2023-01-29T00:54:42.782Z,7.50
2023-01-29T00:55:42.730Z,8.00
2023-01-29T00:56:42.717Z,8.20
2023-01-29T00:57:42.678Z,8.20
2023-01-29T00:58:42.757Z,8.40
2023-01-29T00:59:42.722Z,8.30
2023-01-29T01:00:42.704Z,8.50
2023-01-29T01:01:42.830Z,8.40
2023-01-29T01:02:42.704Z,8.80
2023-01-29T01:03:42.692Z,8.00
2023-01-29T01:04:42.644Z,8.40
2023-01-29T01:05:42.601Z,8.40
2023-01-29T01:06:42.655Z,7.90
2023-01-29T01:07:42.616Z,7.90
2023-01-29T01:08:42.631Z,7.80
2023-01-29T01:09:42.564Z,8.20
2023-01-29T01:10:42.533Z,8.70
2023-01-29T01:11:42.528Z,8.50
2023-01-29T01:12:42.635Z,8.50
2023-01-29T01:13:42.526Z,7.70
2023-01-29T01:14:42.501Z,8.60
2023-01-29T01:15:42.480Z,8.00
2023-01-29T01:16:42.518Z,8.00
2023-01-29T01:17:42.590Z,8.00
2023-01-29T01:18:42.439Z,8.10
2023-01-29T01:19:42.484Z,7.90
2023-01-29T01:20:42.490Z,8.00
2023-01-29T01:21:42.425Z,8.70
2023-01-29T01:22:42.537Z,8.30
2023-01-29T01:23:42.441Z,8.40
2023-01-29T01:24:42.407Z,8.50
2023-01-29T01:25:42.436Z,8.70
2023-01-29T01:26:42.410Z,9.50
2023-01-29T01:27:42.451Z,8.70
2023-01-29T01:28:42.407Z,8.70
2023-01-29T01:29:42.364Z,8.60
2023-01-29T01:30:42.439Z,9.10
2023-01-29T01:31:42.341Z,8.10
2023-01-29T01:32:42.393Z,8.60
2023-01-29T01:33:42.348Z,8.60
2023-01-29T01:34:42.392Z,8.40
2023-01-29T01:35:42.296Z,8.40
2023-01-29T01:36:42.280Z,8.30
2023-01-29T01:37:42.945Z,8.10
2023-01-29T01:38:42.338Z,9.00
2023-01-29T01:39:42.280Z,8.50
2023-01-29T01:40:42.308Z,8.60
2023-01-29T01:41:42.236Z,8.50
2023-01-29T01:42:42.266Z,8.50
2023-01-29T01:43:42.190Z,8.80
2023-01-29T01:44:42.210Z,8.70
2023-01-29T01:45:42.289Z,8.80
2023-01-29T01:46:42.177Z,8.20
2023-01-29T01:47:42.332Z,8.20
2023-01-29T01:48:42.325Z,8.20
2023-01-29T01:49:42.140Z,8.30
2023-01-29T01:50:42.189Z,8.30
2023-01-29T01:51:42.085Z,8.10
2023-01-29T01:52:42.238Z,8.70
2023-01-29T01:53:42.127Z,7.70
2023-01-29T01:54:42.090Z,8.80
2023-01-29T01:55:42.068Z,9.10
2023-01-29T01:56:42.103Z,8.30
2023-01-29T01:57:42.095Z,8.10
2023-01-29T01:58:42.034Z,8.30
2023-01-29T01:59:42.020Z,8.50
2023-01-29T02:00:42.035Z,8.10
2023-01-29T02:01:42.003Z,8.50
2023-01-29T02:02:42.111Z,8.10
2023-01-29T02:03:42.028Z,8.40
2023-01-29T02:04:42.003Z,8.00
2023-01-29T02:05:49.667Z,8.50
2023-01-29T02:06:41.897Z,8.40
2023-01-29T02:07:41.905Z,7.60
2023-01-29T02:08:41.884Z,7.80
2023-01-29T02:09:41.886Z,7.50
2023-01-29T02:10:41.850Z,8.10
2023-01-29T02:11:41.852Z,8.50
2023-01-29T02:12:41.840Z,8.20
2023-01-29T02:13:41.825Z,7.70
2023-01-29T02:14:41.818Z,8.30
2023-01-29T02:15:41.841Z,8.00
2023-01-29T02:16:41.788Z,8.20
2023-01-29T02:17:41.815Z,8.30
2023-01-29T02:18:41.778Z,8.10
2023-01-29T02:19:41.773Z,7.40
2023-01-29T02:20:41.755Z,7.60
2023-01-29T02:21:41.746Z,7.80
2023-01-29T02:22:41.730Z,7.40
2023-01-29T02:23:41.754Z,7.90
2023-01-29T02:24:41.734Z,7.30
2023-01-29T02:25:41.716Z,7.90
2023-01-29T02:26:41.685Z,7.60
2023-01-29T02:27:41.666Z,7.50
2023-01-29T02:28:41.667Z,7.80
2023-01-29T02:29:41.648Z,7.70
2023-01-29T02:30:41.724Z,7.80
2023-01-29T02:31:41.690Z,8.00
2023-01-29T02:32:41.611Z,8.00
2023-01-29T02:33:41.610Z,7.30
2023-01-29T02:34:41.597Z,8.10
2023-01-29T02:35:41.597Z,8.20
2023-01-29T02:36:41.587Z,8.00
2023-01-29T02:37:41.558Z,7.90
2023-01-29T02:38:41.560Z,8.10
2023-01-29T02:39:41.542Z,8.10
2023-01-29T02:40:41.544Z,7.90
2023-01-29T02:41:41.525Z,7.90
2023-01-29T02:42:41.516Z,8.10
2023-01-29T02:43:41.504Z,7.80
2023-01-29T02:44:41.477Z,7.90
2023-01-29T02:45:41.529Z,8.20
2023-01-29T02:46:41.458Z,7.70
2023-01-29T02:47:41.461Z,8.30
2023-01-29T02:48:41.444Z,8.20
2023-01-29T02:49:41.431Z,8.30
2023-01-29T02:50:41.427Z,8.00
2023-01-29T02:51:41.444Z,8.20
2023-01-29T02:52:41.408Z,8.80
2023-01-29T02:53:41.391Z,8.70
2023-01-29T02:54:41.395Z,7.60
2023-01-29T02:55:41.378Z,9.00
2023-01-29T02:56:41.405Z,8.70
2023-01-29T02:57:41.350Z,8.70
2023-01-29T02:58:41.351Z,8.60
2023-01-29T02:59:41.319Z,7.50
2023-01-29T03:00:41.329Z,7.50
2023-01-29T03:01:41.310Z,7.40
2023-01-29T03:02:41.320Z,7.60
2023-01-29T03:03:41.293Z,7.80
2023-01-29T03:04:41.274Z,8.70
2023-01-29T03:05:41.260Z,8.00
2023-01-29T03:06:41.254Z,7.70
2023-01-29T03:07:41.297Z,8.30
2023-01-29T03:08:41.225Z,8.10
2023-01-29T03:09:41.217Z,7.60
2023-01-29T03:10:41.223Z,7.60
2023-01-29T03:11:41.198Z,8.30
2023-01-29T03:12:41.192Z,8.10
2023-01-29T03:13:41.202Z,8.40
2023-01-29T03:14:41.167Z,8.40
2023-01-29T03:15:41.163Z,7.90
2023-01-29T03:16:41.224Z,8.10
2023-01-29T03:17:41.136Z,7.50
2023-01-29T03:18:41.141Z,7.50
2023-01-29T03:19:41.121Z,8.40
2023-01-29T03:20:41.153Z,7.60
2023-01-29T03:21:41.108Z,8.00
2023-01-29T03:22:41.079Z,8.10
2023-01-29T03:23:41.074Z,8.00
2023-01-29T03:24:41.054Z,7.60
2023-01-29T03:25:41.047Z,7.20
2023-01-29T03:26:41.047Z,7.80
2023-01-29T03:27:41.042Z,8.70
2023-01-29T03:28:41.012Z,8.00
2023-01-29T03:29:41.003Z,7.80
2023-01-29T03:30:40.993Z,8.50
2023-01-29T03:31:41.074Z,7.70
2023-01-29T03:32:40.979Z,7.90
2023-01-29T03:33:40.965Z,8.00
2023-01-29T03:34:40.962Z,7.80
2023-01-29T03:35:40.946Z,7.10
2023-01-29T03:36:40.950Z,7.30
2023-01-29T03:37:40.919Z,8.20
2023-01-29T03:38:40.922Z,7.40
2023-01-29T03:39:40.927Z,7.30
2023-01-29T03:40:40.888Z,7.50
2023-01-29T03:41:40.884Z,8.00
2023-01-29T03:42:40.867Z,7.80
2023-01-29T03:43:40.890Z,7.70
2023-01-29T03:44:40.858Z,7.30
2023-01-29T03:45:40.873Z,7.50
2023-01-29T03:46:40.827Z,7.60
2023-01-29T03:47:40.824Z,7.50
2023-01-29T03:48:40.807Z,7.60
2023-01-29T03:49:40.811Z,7.70
2023-01-29T03:50:40.782Z,7.00
2023-01-29T03:51:40.766Z,7.50
2023-01-29T03:52:40.756Z,7.60
2023-01-29T03:53:40.757Z,8.40
2023-01-29T03:54:40.750Z,7.60
2023-01-29T03:55:40.743Z,7.70
2023-01-29T03:56:40.716Z,8.20
2023-01-29T03:57:40.718Z,7.70
2023-01-29T03:58:40.710Z,7.70
2023-01-29T03:59:40.701Z,7.50
2023-01-29T04:00:40.680Z,7.70
2023-01-29T04:01:40.678Z,7.20
2023-01-29T04:02:40.649Z,7.40
2023-01-29T04:03:40.635Z,7.50
2023-01-29T04:04:40.643Z,7.30
2023-01-29T04:05:40.620Z,7.50
2023-01-29T04:06:40.609Z,7.90
2023-01-29T04:07:40.600Z,7.30
2023-01-29T04:08:40.599Z,7.30
2023-01-29T04:09:40.582Z,6.90
2023-01-29T04:10:40.565Z,7.20
2023-01-29T04:11:40.551Z,7.30
2023-01-29T04:12:40.542Z,7.60
2023-01-29T04:13:40.526Z,7.60
2023-01-29T04:14:40.534Z,7.40
2023-01-29T04:15:40.506Z,7.90
2023-01-29T04:16:40.614Z,6.80
2023-01-29T04:17:40.496Z,7.60
2023-01-29T04:18:40.475Z,7.40
2023-01-29T04:19:40.476Z,6.90
2023-01-29T04:20:40.455Z,7.10
2023-01-29T04:21:40.458Z,7.90
2023-01-29T04:22:40.443Z,7.70
2023-01-29T04:23:40.420Z,8.10
2023-01-29T04:24:40.418Z,7.70
2023-01-29T04:25:40.396Z,7.40
2023-01-29T04:26:40.409Z,7.60
2023-01-29T04:27:40.373Z,7.00
2023-01-29T04:28:40.379Z,8.10
2023-01-29T04:29:40.370Z,8.10
2023-01-29T04:30:40.387Z,6.90
2023-01-29T04:31:40.456Z,7.40
2023-01-29T04:32:40.323Z,7.00
2023-01-29T04:33:40.309Z,6.80
2023-01-29T04:34:40.317Z,6.80
2023-01-29T04:35:40.307Z,6.70
2023-01-29T04:36:40.279Z,6.40
2023-01-29T04:37:40.323Z,6.70
2023-01-29T04:38:40.262Z,6.90
2023-01-29T04:39:40.274Z,7.00
2023-01-29T04:40:40.239Z,7.20
2023-01-29T04:41:40.246Z,6.90
2023-01-29T04:42:40.219Z,6.60
2023-01-29T04:43:40.216Z,6.50
2023-01-29T04:44:40.218Z,6.50
2023-01-29T04:45:40.229Z,6.80
2023-01-29T04:46:40.182Z,6.90
2023-01-29T04:47:40.198Z,6.50
2023-01-29T04:48:40.164Z,6.90
2023-01-29T04:49:40.145Z,6.90
2023-01-29T04:50:40.154Z,6.50
2023-01-29T04:51:40.157Z,6.50
2023-01-29T04:52:40.113Z,6.40
2023-01-29T04:53:40.098Z,6.30
2023-01-29T04:54:40.097Z,7.30
2023-01-29T04:55:40.097Z,6.70
2023-01-29T04:56:40.084Z,6.40
2023-01-29T04:57:40.061Z,7.00
2023-01-29T04:58:40.055Z,6.80
2023-01-29T04:59:40.043Z,7.30
2023-01-29T05:00:40.028Z,6.50
2023-01-29T05:01:40.105Z,6.80
2023-01-29T05:02:40.057Z,6.30
2023-01-29T05:03:39.987Z,6.70
2023-01-29T05:04:39.998Z,6.90
2023-01-29T05:05:39.969Z,7.20
2023-01-29T05:06:39.962Z,7.20
2023-01-29T05:07:39.963Z,6.30
2023-01-29T05:08:39.936Z,6.80
2023-01-29T05:09:39.939Z,6.90
2023-01-29T05:10:39.952Z,6.50
2023-01-29T05:11:39.909Z,6.70
2023-01-29T05:12:39.912Z,7.30
2023-01-29T05:13:39.891Z,7.20
2023-01-29T05:14:39.890Z,6.90
2023-01-29T05:15:39.872Z,6.90
2023-01-29T05:16:39.868Z,7.10
2023-01-29T05:17:39.876Z,7.00
2023-01-29T05:18:39.835Z,7.00
2023-01-29T05:19:39.828Z,6.90
2023-01-29T05:20:39.824Z,7.00
2023-01-29T05:21:41.177Z,7.20
2023-01-29T05:22:39.809Z,7.20
2023-01-29T05:23:39.790Z,7.40
2023-01-29T05:24:39.796Z,8.00
2023-01-29T05:25:39.762Z,7.50
2023-01-29T05:26:39.759Z,6.70
2023-01-29T05:27:39.762Z,7.70
2023-01-29T05:28:39.718Z,7.20
2023-01-29T05:29:39.718Z,7.20
2023-01-29T05:30:39.740Z,7.70
2023-01-29T05:31:39.749Z,8.20
2023-01-29T05:32:39.749Z,8.00
2023-01-29T05:33:39.679Z,7.30
2023-01-29T05:34:39.656Z,7.60
2023-01-29T05:35:39.660Z,8.10
2023-01-29T05:36:39.645Z,8.10
2023-01-29T05:37:39.632Z,8.60
2023-01-29T05:38:39.626Z,8.10
2023-01-29T05:39:39.633Z,7.90
2023-01-29T05:40:39.602Z,8.00
2023-01-29T05:41:39.580Z,8.20
2023-01-29T05:42:39.591Z,8.10
2023-01-29T05:43:39.571Z,8.00
2023-01-29T05:44:39.551Z,8.10
2023-01-29T05:45:39.547Z,7.80
2023-01-29T05:46:39.546Z,8.40
2023-01-29T05:47:39.535Z,8.20
2023-01-29T05:48:39.528Z,7.70
2023-01-29T05:49:39.499Z,8.30
2023-01-29T05:50:39.498Z,7.70
2023-01-29T05:51:39.472Z,7.80
2023-01-29T05:52:39.493Z,7.60
2023-01-29T05:53:39.456Z,8.30
2023-01-29T05:54:39.447Z,7.70
2023-01-29T05:55:39.444Z,8.40
2023-01-29T05:56:39.428Z,8.50
2023-01-29T05:57:39.431Z,8.60
2023-01-29T05:58:39.410Z,8.60
2023-01-29T05:59:39.392Z,7.80
2023-01-29T06:00:39.380Z,8.20
2023-01-29T06:01:39.417Z,7.90
2023-01-29T06:02:39.432Z,8.00
2023-01-29T06:03:39.373Z,8.60
2023-01-29T06:04:39.341Z,8.70
2023-01-29T06:05:39.342Z,8.50
2023-01-29T06:06:39.327Z,8.50
2023-01-29T06:07:39.340Z,8.60
2023-01-29T06:08:39.297Z,8.40
2023-01-29T06:09:39.284Z,8.00
2023-01-29T06:10:39.267Z,8.50
2023-01-29T06:11:39.265Z,8.10
2023-01-29T06:12:39.260Z,8.50
2023-01-29T06:13:39.271Z,7.60
2023-01-29T06:14:39.227Z,8.10
2023-01-29T06:15:39.213Z,8.80
2023-01-29T06:16:39.207Z,7.80
2023-01-29T06:17:39.205Z,8.70
2023-01-29T06:18:39.215Z,8.80
2023-01-29T06:19:39.176Z,8.70
2023-01-29T06:20:39.181Z,8.70
2023-01-29T06:21:39.171Z,8.50
2023-01-29T06:22:39.139Z,8.20
2023-01-29T06:23:39.163Z,8.90
2023-01-29T06:24:39.119Z,8.80
2023-01-29T06:25:39.109Z,9.00
2023-01-29T06:26:39.097Z,8.40
2023-01-29T06:27:39.098Z,8.60
2023-01-29T06:28:39.095Z,8.90
2023-01-29T06:29:39.081Z,8.30
2023-01-29T06:30:39.119Z,8.30
2023-01-29T06:31:39.841Z,8.30
2023-01-29T06:32:39.073Z,9.50
2023-01-29T06:33:39.058Z,9.30
2023-01-29T06:34:39.039Z,9.20
2023-01-29T06:35:39.007Z,9.30
2023-01-29T06:36:38.995Z,9.60
2023-01-29T06:37:38.996Z,9.30
2023-01-29T06:38:38.963Z,9.50
2023-01-29T06:39:38.971Z,8.80
2023-01-29T06:40:38.978Z,9.10
2023-01-29T06:41:38.948Z,9.80
2023-01-29T06:42:38.938Z,9.30
2023-01-29T06:43:38.928Z,9.40
2023-01-29T06:44:38.925Z,9.60
2023-01-29T06:45:38.946Z,8.90
2023-01-29T06:46:38.906Z,9.40
2023-01-29T06:47:38.872Z,9.20
2023-01-29T06:48:38.906Z,9.00
2023-01-29T06:49:38.853Z,8.50
2023-01-29T06:50:38.858Z,9.40
2023-01-29T06:51:38.827Z,9.40
2023-01-29T06:52:38.827Z,9.10
2023-01-29T06:53:38.834Z,9.60
2023-01-29T06:54:38.800Z,9.40
2023-01-29T06:55:38.799Z,9.90
2023-01-29T06:56:46.817Z,9.20
2023-01-29T06:57:39.043Z,9.80
2023-01-29T06:58:38.930Z,9.20
2023-01-29T06:59:38.935Z,9.10
2023-01-29T07:00:39.357Z,9.60
2023-01-29T07:01:38.769Z,10.20
2023-01-29T07:02:38.730Z,9.90
2023-01-29T07:03:38.746Z,9.30
2023-01-29T07:04:38.740Z,9.80
2023-01-29T07:05:38.692Z,9.30
2023-01-29T07:06:38.694Z,9.40
2023-01-29T07:07:38.686Z,10.20
2023-01-29T07:08:38.749Z,10.20
2023-01-29T07:09:38.681Z,9.70
2023-01-29T07:10:38.694Z,9.30
2023-01-29T07:11:38.619Z,9.60
2023-01-29T07:12:38.629Z,9.40
2023-01-29T07:13:38.637Z,9.90
2023-01-29T07:14:38.604Z,8.90
2023-01-29T07:15:38.661Z,9.80
2023-01-29T07:16:38.642Z,9.20
2023-01-29T07:17:38.567Z,9.70
2023-01-29T07:18:38.564Z,10.40
2023-01-29T07:19:38.580Z,9.30
2023-01-29T07:20:38.555Z,9.40
2023-01-29T07:21:38.518Z,9.40
2023-01-29T07:22:38.556Z,9.70
2023-01-29T07:23:38.533Z,9.40
2023-01-29T07:24:38.500Z,9.40
2023-01-29T07:25:38.497Z,10.00
2023-01-29T07:26:38.504Z,9.70
2023-01-29T07:27:38.506Z,9.50
2023-01-29T07:28:38.467Z,9.60
2023-01-29T07:29:38.432Z,9.50
2023-01-29T07:30:38.447Z,10.00
2023-01-29T07:31:38.658Z,9.30
2023-01-29T07:32:38.472Z,10.10
2023-01-29T07:33:38.426Z,9.60
2023-01-29T07:34:38.474Z,9.40
2023-01-29T07:35:38.374Z,9.40
2023-01-29T07:36:38.396Z,9.80
2023-01-29T07:37:38.358Z,9.80
2023-01-29T07:38:38.363Z,9.50
2023-01-29T07:39:38.336Z,10.10
2023-01-29T07:40:38.385Z,10.40
2023-01-29T07:41:38.358Z,9.80
2023-01-29T07:42:38.351Z,9.70
2023-01-29T07:43:38.300Z,10.50
2023-01-29T07:44:38.274Z,10.30
2023-01-29T07:45:38.325Z,10.00
2023-01-29T07:46:38.343Z,10.60
2023-01-29T07:47:38.248Z,10.30
2023-01-29T07:48:38.258Z,10.30
2023-01-29T07:49:38.230Z,10.80
2023-01-29T07:50:38.220Z,9.90
2023-01-29T07:51:38.294Z,10.60
2023-01-29T07:52:38.253Z,10.90
2023-01-29T07:53:38.209Z,10.20
2023-01-29T07:54:38.165Z,10.00
2023-01-29T07:55:38.177Z,10.40
2023-01-29T07:56:38.152Z,9.80
2023-01-29T07:57:38.157Z,11.10
2023-01-29T07:58:38.196Z,10.50
2023-01-29T07:59:38.129Z,10.90
2023-01-29T08:00:38.118Z,10.20
2023-01-29T08:01:38.278Z,10.70
2023-01-29T08:02:38.116Z,11.60
2023-01-29T08:03:38.088Z,10.20
2023-01-29T08:04:38.097Z,10.60
2023-01-29T08:06:38.588Z,10.60
2023-01-29T08:07:38.580Z,10.80
2023-01-29T08:08:38.570Z,11.00
2023-01-29T08:09:38.560Z,11.10
2023-01-29T08:10:38.578Z,11.60
2023-01-29T08:11:38.528Z,11.90
2023-01-29T08:12:38.518Z,11.30
2023-01-29T08:13:38.527Z,11.20
2023-01-29T08:14:38.506Z,11.10
2023-01-29T08:15:39.368Z,12.10
2023-01-29T08:18:39.347Z,10.80
2023-01-29T08:19:39.321Z,11.20
2023-01-29T08:20:39.298Z,11.60
2023-01-29T08:21:39.289Z,11.50
2023-01-29T08:22:39.284Z,11.20
2023-01-29T08:23:39.258Z,11.50
2023-01-29T08:24:53.326Z,10.60
2023-01-29T08:25:40.259Z,11.50
2023-01-29T08:26:39.229Z,11.10
2023-01-29T08:27:39.212Z,11.50
2023-01-29T08:28:39.228Z,11.40
2023-01-29T08:29:39.224Z,11.90
2023-01-29T08:30:39.216Z,12.00
2023-01-29T08:31:39.236Z,12.10
2023-01-29T08:32:39.163Z,12.60
2023-01-29T08:33:39.581Z,11.80
2023-01-29T08:34:39.177Z,12.50
2023-01-29T08:35:39.126Z,12.20
2023-01-29T08:36:39.125Z,12.20
2023-01-29T08:37:39.122Z,12.40
2023-01-29T08:38:39.106Z,12.20
2023-01-29T08:39:39.117Z,12.00
2023-01-29T08:40:39.080Z,12.60
2023-01-29T08:41:39.109Z,12.40
2023-01-29T08:42:39.066Z,12.40
2023-01-29T08:43:39.056Z,12.20
2023-01-29T08:44:39.078Z,12.10
2023-01-29T08:45:39.137Z,12.80
2023-01-29T08:46:39.037Z,12.70
2023-01-29T08:47:39.011Z,12.60
2023-01-29T08:48:39.007Z,12.80
2023-01-29T08:49:39.014Z,12.70
2023-01-29T08:50:38.986Z,11.90
2023-01-29T08:51:38.977Z,12.50
2023-01-29T08:52:38.952Z,12.30
2023-01-29T08:53:38.939Z,12.00
2023-01-29T08:54:38.943Z,12.90
2023-01-29T08:55:38.931Z,12.60
2023-01-29T08:56:38.907Z,12.80
2023-01-29T08:57:38.939Z,12.70
2023-01-29T08:58:38.937Z,13.20
2023-01-29T08:59:38.934Z,12.80
2023-01-29T09:00:38.910Z,12.90
2023-01-29T09:01:38.856Z,13.10
2023-01-29T09:02:38.960Z,12.10
2023-01-29T09:03:38.867Z,13.10
2023-01-29T09:04:38.844Z,13.00
2023-01-29T09:05:38.824Z,13.70
2023-01-29T09:06:38.813Z,12.70
2023-01-29T09:07:38.791Z,13.20
2023-01-29T09:08:38.807Z,13.50
2023-01-29T09:09:38.827Z,12.80
2023-01-29T09:10:38.760Z,13.60
2023-01-29T09:11:51.014Z,13.30
2023-01-29T09:12:38.733Z,13.50
2023-01-29T09:13:38.735Z,13.40
2023-01-29T09:14:38.719Z,14.20
2023-01-29T09:15:38.731Z,13.60
2023-01-29T09:16:38.739Z,14.10
2023-01-29T09:17:38.681Z,13.90
2023-01-29T09:18:38.679Z,13.90
2023-01-29T09:19:38.686Z,13.90
2023-01-29T09:20:38.693Z,14.40
2023-01-29T09:21:38.642Z,14.50
2023-01-29T09:22:38.633Z,14.80
2023-01-29T09:23:38.628Z,13.70
2023-01-29T09:24:38.629Z,14.70
2023-01-29T09:25:38.652Z,13.50
2023-01-29T09:26:38.630Z,14.20
2023-01-29T09:27:38.592Z,14.50
2023-01-29T09:28:38.580Z,13.90
2023-01-29T09:29:38.555Z,14.60
2023-01-29T09:30:38.762Z,13.70
2023-01-29T09:31:38.645Z,13.60
2023-01-29T09:32:54.760Z,13.80
2023-01-29T09:33:39.538Z,13.50
2023-01-29T09:34:38.517Z,13.50
2023-01-29T09:35:38.647Z,13.80
2023-01-29T09:36:38.609Z,13.80
2023-01-29T09:37:38.559Z,13.60
2023-01-29T09:38:38.528Z,13.10
2023-01-29T09:39:38.551Z,13.80
2023-01-29T09:40:38.471Z,14.30
2023-01-29T09:41:38.441Z,14.00
2023-01-29T09:42:38.446Z,13.40
2023-01-29T09:43:38.449Z,13.70
2023-01-29T09:44:38.423Z,14.00
2023-01-29T09:45:38.462Z,14.20
2023-01-29T09:46:38.406Z,13.40
2023-01-29T09:47:38.400Z,13.10
2023-01-29T09:48:38.377Z,13.00
2023-01-29T09:49:38.404Z,13.20
2023-01-29T09:50:38.477Z,13.20
2023-01-29T09:51:38.368Z,13.20
2023-01-29T09:52:38.335Z,12.30
2023-01-29T09:53:38.316Z,13.40
2023-01-29T09:54:38.339Z,12.70
2023-01-29T09:55:38.317Z,13.30
2023-01-29T09:56:38.303Z,13.10
2023-01-29T09:57:38.271Z,12.70
2023-01-29T09:58:38.265Z,13.20
2023-01-29T09:59:38.259Z,13.20
2023-01-29T10:00:38.284Z,12.70
2023-01-29T10:01:38.326Z,13.00
2023-01-29T10:02:38.249Z,13.10
2023-01-29T10:03:38.232Z,13.30
2023-01-29T10:04:38.236Z,13.20
2023-01-29T10:05:38.300Z,13.60
2023-01-29T10:06:38.194Z,12.70
2023-01-29T10:07:38.206Z,13.50
2023-01-29T10:08:38.184Z,13.30
2023-01-29T10:09:38.153Z,12.80
2023-01-29T10:10:38.154Z,13.10
2023-01-29T10:11:38.152Z,11.80
2023-01-29T10:12:38.117Z,12.50
2023-01-29T10:13:38.129Z,12.60
2023-01-29T10:14:38.085Z,12.70
2023-01-29T10:15:38.129Z,12.80
2023-01-29T10:16:38.098Z,13.00
2023-01-29T10:17:38.058Z,13.40
2023-01-29T10:18:38.096Z,13.40
2023-01-29T10:19:38.049Z,13.50
2023-01-29T10:20:38.061Z,14.30
2023-01-29T10:21:38.015Z,13.40
2023-01-29T10:22:38.032Z,13.00
2023-01-29T10:23:38.003Z,13.20
2023-01-29T10:24:37.987Z,13.50
2023-01-29T10:25:37.975Z,13.10
2023-01-29T10:26:38.104Z,13.70
2023-01-29T10:27:37.967Z,12.70
2023-01-29T10:28:37.971Z,12.40
2023-01-29T10:29:37.930Z,12.40
2023-01-29T10:30:37.935Z,12.10
2023-01-29T10:31:38.008Z,12.20
2023-01-29T10:32:37.913Z,12.50
2023-01-29T10:33:49.152Z,12.70
2023-01-29T10:34:38.897Z,11.70
2023-01-29T10:35:37.937Z,12.30
2023-01-29T10:36:37.868Z,11.90
2023-01-29T10:37:37.867Z,11.80
2023-01-29T10:38:37.828Z,11.40
2023-01-29T10:39:37.821Z,12.10
2023-01-29T10:40:37.814Z,12.00
2023-01-29T10:41:37.801Z,11.30
2023-01-29T10:42:37.833Z,11.40
2023-01-29T10:43:37.836Z,11.90
2023-01-29T10:44:37.837Z,11.30
2023-01-29T10:45:37.829Z,11.90
2023-01-29T10:46:37.767Z,11.60
2023-01-29T10:47:37.815Z,11.70
2023-01-29T10:48:37.758Z,11.30
2023-01-29T10:49:37.758Z,11.60
2023-01-29T10:50:37.781Z,11.00
2023-01-29T10:51:37.780Z,10.90
2023-01-29T10:52:37.726Z,11.70
2023-01-29T10:53:37.722Z,11.50
2023-01-29T10:54:37.767Z,11.30
2023-01-29T10:55:37.650Z,10.80
2023-01-29T10:56:37.712Z,11.80
2023-01-29T10:57:37.717Z,12.00
2023-01-29T10:58:37.650Z,12.20
2023-01-29T10:59:37.693Z,12.80
2023-01-29T11:00:37.597Z,12.20
2023-01-29T11:01:37.610Z,11.90
2023-01-29T11:02:37.696Z,11.90
2023-01-29T11:03:37.687Z,11.40
2023-01-29T11:04:37.574Z,12.50
2023-01-29T11:05:37.571Z,11.70
2023-01-29T11:06:37.540Z,11.60
2023-01-29T11:07:37.579Z,12.10
2023-01-29T11:08:37.539Z,13.00
2023-01-29T11:09:37.510Z,11.50
2023-01-29T11:10:37.510Z,11.50
2023-01-29T11:11:37.511Z,11.30
2023-01-29T11:12:37.508Z,11.00
2023-01-29T11:13:37.480Z,10.60
2023-01-29T11:14:38.150Z,11.20
2023-01-29T11:15:37.480Z,10.60
2023-01-29T11:16:37.504Z,11.30
2023-01-29T11:17:37.454Z,10.50
2023-01-29T11:18:37.448Z,10.60
2023-01-29T11:19:37.415Z,10.20
2023-01-29T11:20:37.428Z,10.60
2023-01-29T11:21:37.477Z,10.80
2023-01-29T11:22:37.368Z,10.20
2023-01-29T11:23:37.391Z,10.50
2023-01-29T11:24:37.402Z,11.30
2023-01-29T11:25:37.376Z,11.40
2023-01-29T11:26:37.394Z,10.90
2023-01-29T11:27:37.345Z,10.20
2023-01-29T11:28:37.317Z,10.50
2023-01-29T11:29:38.193Z,10.50
2023-01-29T11:30:37.358Z,10.30
2023-01-29T11:31:37.358Z,10.30
2023-01-29T11:32:37.261Z,10.00
2023-01-29T11:33:37.305Z,10.80
2023-01-29T11:34:37.272Z,10.30
2023-01-29T11:35:37.263Z,10.00
2023-01-29T11:36:37.263Z,10.30
2023-01-29T11:37:37.286Z,10.10
2023-01-29T11:38:37.195Z,9.50
2023-01-29T11:39:37.190Z,10.20
2023-01-29T11:40:37.217Z,10.70
2023-01-29T11:41:37.179Z,13.10
2023-01-29T11:42:37.159Z,12.40
2023-01-29T11:43:37.175Z,11.90
2023-01-29T11:44:37.147Z,11.50
2023-01-29T11:45:37.120Z,11.40
2023-01-29T11:46:37.155Z,11.10
2023-01-29T11:47:37.121Z,10.80
2023-01-29T11:48:37.088Z,10.60
2023-01-29T11:49:37.096Z,10.40
2023-01-29T11:50:37.067Z,10.00
2023-01-29T11:51:37.080Z,10.60
2023-01-29T11:52:37.066Z,10.40
2023-01-29T11:53:37.033Z,9.90
2023-01-29T11:54:37.049Z,9.50
2023-01-29T11:55:49.939Z,10.20
2023-01-29T11:56:38.024Z,10.80
2023-01-29T11:57:37.017Z,10.10
2023-01-29T11:58:37.036Z,10.20
2023-01-29T11:59:36.982Z,10.10
2023-01-29T12:00:36.986Z,9.70
2023-01-29T12:01:37.007Z,10.40
2023-01-29T12:02:36.970Z,9.70
2023-01-29T12:03:36.994Z,9.40
2023-01-29T12:04:36.973Z,9.60
2023-01-29T12:05:36.927Z,9.60
2023-01-29T12:06:36.900Z,9.60
2023-01-29T12:07:36.883Z,9.60
2023-01-29T12:08:36.891Z,9.60
2023-01-29T12:09:36.876Z,9.80
2023-01-29T12:10:36.899Z,9.70
2023-01-29T12:11:36.856Z,8.90
2023-01-29T12:12:36.841Z,9.80
2023-01-29T12:13:36.850Z,9.90
2023-01-29T12:14:36.812Z,9.80
2023-01-29T12:15:36.821Z,10.50
2023-01-29T12:16:36.871Z,10.60
2023-01-29T12:17:36.805Z,9.70
2023-01-29T12:18:36.780Z,9.90
2023-01-29T12:19:36.769Z,9.20
2023-01-29T12:20:36.780Z,10.00
2023-01-29T12:21:36.838Z,9.80
2023-01-29T12:22:36.789Z,8.90
2023-01-29T12:23:36.733Z,9.70
2023-01-29T12:24:36.710Z,8.90
2023-01-29T12:25:36.701Z,8.80
2023-01-29T12:26:36.727Z,9.30
2023-01-29T12:27:36.731Z,9.30
2023-01-29T12:28:36.708Z,9.30
2023-01-29T12:29:36.660Z,8.90
2023-01-29T12:30:36.677Z,9.30
2023-01-29T12:31:36.676Z,9.10
2023-01-29T12:32:36.692Z,9.20
2023-01-29T12:33:36.609Z,9.00
2023-01-29T12:34:36.594Z,8.90
2023-01-29T12:35:36.627Z,9.80
2023-01-29T12:36:36.579Z,9.50
2023-01-29T12:37:36.599Z,9.70
2023-01-29T12:38:36.562Z,9.00
2023-01-29T12:39:36.547Z,9.60
2023-01-29T12:40:36.543Z,9.30
2023-01-29T12:41:36.525Z,9.00
2023-01-29T12:42:36.543Z,8.90
2023-01-29T12:43:36.523Z,9.00
2023-01-29T12:44:36.501Z,8.90
2023-01-29T12:45:36.484Z,9.10
2023-01-29T12:46:36.482Z,9.30
2023-01-29T12:47:36.484Z,8.70
2023-01-29T12:48:36.467Z,9.20
2023-01-29T12:49:36.452Z,9.10
2023-01-29T12:50:36.444Z,8.90
2023-01-29T12:51:36.418Z,8.80
2023-01-29T12:52:36.405Z,8.80
2023-01-29T12:53:36.426Z,9.70
2023-01-29T12:54:36.406Z,9.90
2023-01-29T12:55:36.377Z,9.20
2023-01-29T12:56:36.373Z,9.10
2023-01-29T12:57:36.355Z,9.00
2023-01-29T12:58:36.366Z,9.20
2023-01-29T12:59:36.359Z,8.80
2023-01-29T13:00:36.347Z,8.30
2023-01-29T13:01:36.322Z,9.00
2023-01-29T13:02:36.345Z,9.00
2023-01-29T13:03:36.371Z,9.00
2023-01-29T13:04:36.304Z,8.90
2023-01-29T13:05:36.274Z,9.70
2023-01-29T13:06:36.309Z,8.40
2023-01-29T13:07:36.257Z,9.40
2023-01-29T13:08:36.270Z,9.20
2023-01-29T13:09:36.224Z,8.90
2023-01-29T13:10:36.248Z,8.50
2023-01-29T13:11:36.240Z,8.90
2023-01-29T13:12:36.253Z,8.40